createdAt,value
2017-09-18T00:00:18.233Z,93.76
2017-09-18T00:02:45.950Z,93.79
2017-09-18T00:05:13.638Z,93.79
2017-09-18T00:07:41.360Z,94.06
2017-09-18T00:10:09.082Z,94.19
2017-09-18T00:12:36.855Z,94.29
2017-09-18T00:15:04.563Z,94.35
2017-09-18T00:17:32.290Z,94.46
2017-09-18T00:19:59.968Z,94.57
2017-09-18T00:22:27.707Z,94.60
2017-09-18T00:24:55.408Z,94.64
2017-09-18T00:27:23.139Z,94.63
2017-09-18T00:29:50.813Z,94.60
2017-09-18T00:32:18.571Z,94.54
2017-09-18T00:34:46.271Z,94.49
2017-09-18T00:37:14.033Z,94.56
2017-09-18T00:39:41.703Z,94.67
2017-09-18T00:42:09.433Z,94.64
2017-09-18T00:44:37.113Z,94.59
2017-09-18T00:47:04.874Z,94.66
2017-09-18T00:49:32.577Z,94.82
2017-09-18T00:52:00.330Z,94.90
2017-09-18T00:54:28.039Z,94.94
2017-09-18T00:56:55.793Z,94.99
2017-09-18T00:59:23.485Z,95.03
2017-09-18T01:01:51.261Z,95.06
2017-09-18T01:04:18.949Z,95.16
2017-09-18T01:06:46.682Z,95.24
2017-09-18T01:09:14.370Z,95.33
2017-09-18T01:11:42.109Z,95.41
2017-09-18T01:14:09.946Z,95.49
2017-09-18T01:16:37.669Z,95.51
2017-09-18T01:19:05.359Z,95.55
2017-09-18T01:21:33.147Z,95.63
2017-09-18T01:24:01.004Z,95.66
2017-09-18T01:26:28.726Z,95.68
2017-09-18T01:28:56.399Z,95.69
2017-09-18T01:31:24.122Z,95.67
2017-09-18T01:33:51.823Z,95.67
2017-09-18T01:36:19.578Z,95.69
2017-09-18T01:38:47.345Z,95.67
2017-09-18T01:41:15.012Z,95.64
2017-09-18T01:43:42.730Z,95.65
2017-09-18T01:46:10.428Z,95.66
2017-09-18T01:48:38.153Z,95.69
2017-09-18T01:51:05.833Z,95.72
2017-09-18T01:53:33.550Z,95.72
2017-09-18T01:56:01.257Z,95.66
2017-09-18T01:58:29.030Z,95.65
2017-09-18T02:00:56.614Z,95.67
2017-09-18T02:03:24.361Z,95.67
2017-09-18T02:05:52.076Z,95.71
2017-09-18T02:08:19.828Z,95.73
2017-09-18T02:10:47.521Z,95.76
2017-09-18T02:13:15.266Z,95.76
2017-09-18T02:15:42.964Z,95.75
2017-09-18T02:18:10.686Z,95.76
2017-09-18T02:20:38.384Z,95.84
2017-09-18T02:23:06.121Z,95.86
2017-09-18T02:25:33.826Z,95.82
2017-09-18T02:28:01.558Z,95.73
2017-09-18T02:30:29.259Z,95.74
2017-09-18T02:32:57.001Z,95.81
2017-09-18T02:35:24.699Z,95.84
2017-09-18T02:37:52.473Z,95.80
2017-09-18T02:40:20.171Z,95.75
2017-09-18T02:42:47.929Z,95.74
2017-09-18T02:45:15.631Z,95.77
2017-09-18T02:47:43.387Z,95.79
2017-09-18T02:50:11.068Z,95.80
2017-09-18T02:52:38.805Z,95.81
2017-09-18T02:55:06.488Z,95.81
2017-09-18T02:57:34.207Z,95.86
2017-09-18T03:00:01.893Z,95.85
2017-09-18T03:02:29.612Z,95.77
2017-09-18T03:04:57.290Z,95.60
2017-09-18T03:07:25.026Z,95.42
2017-09-18T03:09:52.704Z,95.36
2017-09-18T03:12:20.503Z,95.37
2017-09-18T03:14:48.200Z,95.42
2017-09-18T03:17:15.908Z,95.47
2017-09-18T03:19:43.634Z,95.40
2017-09-18T03:22:11.306Z,95.27
2017-09-18T03:24:39.029Z,95.24
2017-09-18T03:27:06.731Z,95.25
2017-09-18T03:29:34.474Z,95.29
2017-09-18T03:32:02.185Z,95.42
2017-09-18T03:34:29.915Z,95.54
2017-09-18T03:36:57.641Z,95.41
2017-09-18T03:39:25.414Z,95.12
2017-09-18T03:41:53.138Z,94.97
2017-09-18T03:44:20.935Z,95.16
2017-09-18T03:46:48.688Z,95.23
2017-09-18T03:49:16.468Z,95.35
2017-09-18T03:51:44.184Z,95.61
2017-09-18T03:54:11.972Z,95.83
2017-09-18T03:56:39.676Z,96.09
2017-09-18T03:59:07.441Z,96.22
2017-09-18T04:01:35.136Z,96.18
2017-09-18T04:04:03.038Z,96.39
2017-09-18T04:06:30.728Z,96.39
2017-09-18T04:08:58.450Z,96.39
2017-09-18T04:11:26.151Z,96.46
2017-09-18T04:13:53.870Z,96.52
2017-09-18T04:16:21.550Z,96.48
2017-09-18T04:18:49.277Z,96.35
2017-09-18T04:21:16.995Z,96.27
2017-09-18T04:23:44.753Z,96.30
2017-09-18T04:26:12.470Z,96.27
2017-09-18T04:28:40.386Z,96.18
2017-09-18T04:31:08.091Z,96.12
2017-09-18T04:33:35.867Z,96.01
2017-09-18T04:36:03.588Z,95.92
2017-09-18T04:38:31.396Z,95.94
2017-09-18T04:40:59.093Z,95.96
2017-09-18T04:43:26.868Z,95.92
2017-09-18T04:45:54.567Z,95.91
2017-09-18T04:48:22.335Z,95.83
2017-09-18T04:50:50.062Z,95.75
2017-09-18T04:53:17.792Z,95.76
2017-09-18T04:55:45.527Z,95.77
2017-09-18T04:58:13.239Z,95.78
2017-09-18T05:00:40.956Z,95.81
2017-09-18T05:03:08.668Z,95.91
2017-09-18T05:05:36.418Z,95.85
2017-09-18T05:08:04.105Z,95.87
2017-09-18T05:10:31.866Z,95.89
2017-09-18T05:12:59.572Z,95.88
2017-09-18T05:15:27.325Z,95.93
2017-09-18T05:17:55.028Z,96.05
2017-09-18T05:20:22.763Z,96.07
2017-09-18T05:22:50.451Z,96.07
2017-09-18T05:25:18.189Z,96.09
2017-09-18T05:27:45.873Z,96.01
2017-09-18T05:30:13.660Z,96.00
2017-09-18T05:32:41.356Z,96.02
2017-09-18T05:35:09.117Z,96.06
2017-09-18T05:37:36.841Z,96.07
2017-09-18T05:40:04.578Z,96.08
2017-09-18T05:42:32.259Z,96.07
2017-09-18T05:44:59.985Z,95.92
2017-09-18T05:47:27.676Z,95.59
2017-09-18T05:49:55.413Z,95.51
2017-09-18T05:52:23.104Z,95.51
2017-09-18T05:54:50.845Z,95.49
2017-09-18T05:57:18.547Z,95.36
2017-09-18T05:59:46.301Z,95.16
2017-09-18T06:02:13.975Z,94.95
2017-09-18T06:04:41.712Z,94.74
2017-09-18T06:07:09.422Z,94.49
2017-09-18T06:09:37.152Z,94.18
2017-09-18T06:12:04.862Z,93.82
2017-09-18T06:14:32.600Z,93.96
2017-09-18T06:17:00.298Z,94.16
2017-09-18T06:19:28.060Z,94.31
2017-09-18T06:21:55.767Z,94.22
2017-09-18T06:24:23.521Z,94.09
2017-09-18T06:26:51.216Z,94.34
2017-09-18T06:29:18.980Z,94.42
2017-09-18T06:31:46.589Z,94.46
2017-09-18T06:34:14.310Z,94.41
2017-09-18T06:36:42.090Z,94.35
2017-09-18T06:39:09.804Z,94.30
2017-09-18T06:41:37.549Z,94.31
2017-09-18T06:44:05.244Z,94.11
2017-09-18T06:46:33.024Z,93.84
2017-09-18T06:49:00.751Z,93.51
2017-09-18T06:51:28.537Z,93.14
2017-09-18T06:53:56.149Z,92.71
2017-09-18T06:56:24.028Z,92.56
2017-09-18T06:58:51.748Z,92.56
2017-09-18T07:01:19.516Z,92.26
2017-09-18T07:03:47.256Z,91.93
2017-09-18T07:06:15.079Z,91.79
2017-09-18T07:08:42.815Z,91.91
2017-09-18T07:11:10.603Z,91.98
2017-09-18T07:13:38.314Z,91.75
2017-09-18T07:16:06.055Z,91.63
2017-09-18T07:18:33.773Z,91.61
2017-09-18T07:21:01.559Z,91.83
2017-09-18T07:23:29.255Z,91.82
2017-09-18T07:25:57.019Z,91.65
2017-09-18T07:28:24.713Z,91.31
2017-09-18T07:30:52.469Z,91.43
2017-09-18T07:33:20.167Z,91.41
2017-09-18T07:35:47.933Z,91.20
2017-09-18T07:38:15.695Z,91.26
2017-09-18T07:40:43.476Z,91.39
2017-09-18T07:43:11.222Z,91.01
2017-09-18T07:45:38.999Z,90.51
2017-09-18T07:48:06.741Z,90.34
2017-09-18T07:50:34.492Z,89.45
2017-09-18T07:53:02.218Z,89.24
2017-09-18T07:55:29.965Z,87.81
2017-09-18T07:57:57.710Z,87.62
2017-09-18T08:00:25.516Z,87.05
2017-09-18T08:02:53.140Z,87.06
2017-09-18T08:05:20.894Z,87.13
2017-09-18T08:07:48.600Z,86.69
2017-09-18T08:10:16.373Z,85.86
2017-09-18T08:12:44.054Z,86.40
2017-09-18T08:15:11.897Z,85.51
2017-09-18T08:17:39.679Z,85.96
2017-09-18T08:20:07.386Z,84.92
2017-09-18T08:22:35.154Z,86.43
2017-09-18T08:25:02.868Z,86.31
2017-09-18T08:27:30.663Z,85.40
2017-09-18T08:29:58.389Z,85.22
2017-09-18T08:32:26.157Z,85.07
2017-09-18T08:34:53.847Z,85.77
2017-09-18T08:37:21.547Z,85.14
2017-09-18T08:39:49.243Z,84.33
2017-09-18T08:42:16.990Z,84.28
2017-09-18T08:44:44.691Z,82.96
2017-09-18T08:47:12.476Z,82.19
2017-09-18T08:49:40.167Z,81.57
2017-09-18T08:52:07.935Z,82.08
2017-09-18T08:54:35.666Z,81.44
2017-09-18T08:57:03.413Z,80.17
2017-09-18T08:59:31.122Z,79.69
2017-09-18T09:01:58.927Z,80.97
2017-09-18T09:04:26.641Z,80.79
2017-09-18T09:06:54.385Z,80.33
2017-09-18T09:09:22.118Z,81.11
2017-09-18T09:11:49.903Z,80.40
2017-09-18T09:14:17.637Z,78.49
2017-09-18T09:16:45.404Z,78.45
2017-09-18T09:19:13.135Z,79.82
2017-09-18T09:21:40.872Z,78.22
2017-09-18T09:24:08.585Z,77.58
2017-09-18T09:26:36.336Z,77.69
2017-09-18T09:29:04.058Z,77.05
2017-09-18T09:31:31.819Z,76.50
2017-09-18T09:33:59.568Z,76.06
2017-09-18T09:36:27.433Z,78.10
2017-09-18T09:38:55.628Z,77.93
2017-09-18T09:41:23.381Z,77.29
2017-09-18T09:43:51.098Z,76.21
2017-09-18T09:46:18.843Z,75.40
2017-09-18T09:48:46.540Z,73.98
2017-09-18T09:51:14.295Z,75.09
2017-09-18T09:53:42.024Z,75.08
2017-09-18T09:56:09.779Z,73.95
2017-09-18T09:58:37.486Z,73.24
2017-09-18T10:01:05.181Z,72.93
2017-09-18T10:03:32.942Z,69.39
2017-09-18T10:06:00.629Z,71.09
2017-09-18T10:08:28.422Z,70.40
2017-09-18T10:10:56.110Z,68.64
2017-09-18T10:13:23.839Z,70.08
2017-09-18T10:15:51.565Z,67.46
2017-09-18T10:18:19.358Z,70.18
2017-09-18T10:20:47.070Z,69.54
2017-09-18T10:23:14.815Z,70.57
2017-09-18T10:25:42.498Z,70.83
2017-09-18T10:28:10.286Z,70.63
2017-09-18T10:30:38.004Z,70.08
2017-09-18T10:33:05.766Z,68.33
2017-09-18T10:35:33.483Z,69.08
2017-09-18T10:38:01.296Z,68.00
2017-09-18T10:40:29.016Z,69.73
2017-09-18T10:42:56.791Z,68.84
2017-09-18T10:45:24.496Z,66.84
2017-09-18T10:47:52.233Z,66.05
2017-09-18T10:50:19.966Z,66.26
2017-09-18T10:52:47.722Z,67.83
2017-09-18T10:55:15.458Z,67.00
2017-09-18T10:57:43.194Z,66.89
2017-09-18T11:00:10.902Z,66.24
2017-09-18T11:02:38.660Z,67.01
2017-09-18T11:05:06.385Z,68.00
2017-09-18T11:07:34.158Z,66.76
2017-09-18T11:10:01.880Z,67.28
2017-09-18T11:12:29.653Z,66.94
2017-09-18T11:14:57.361Z,67.95
2017-09-18T11:17:25.129Z,66.99
2017-09-18T11:19:52.847Z,66.17
2017-09-18T11:22:20.592Z,66.89
2017-09-18T11:24:48.331Z,66.31
2017-09-18T11:27:16.467Z,65.60
2017-09-18T11:29:44.175Z,64.91
2017-09-18T11:32:11.959Z,63.48
2017-09-18T11:34:39.647Z,64.85
2017-09-18T11:37:07.400Z,65.55
2017-09-18T11:39:35.172Z,64.46
2017-09-18T11:42:02.914Z,65.51
2017-09-18T11:44:30.654Z,65.43
2017-09-18T11:46:58.414Z,64.73
2017-09-18T11:49:26.174Z,63.56
2017-09-18T11:51:53.904Z,62.35
2017-09-18T11:54:21.689Z,63.54
2017-09-18T11:56:49.405Z,64.99
2017-09-18T11:59:17.158Z,63.99
2017-09-18T12:01:44.917Z,64.28
2017-09-18T12:04:12.685Z,65.83
2017-09-18T12:06:40.368Z,66.67
2017-09-18T12:09:08.148Z,66.40
2017-09-18T12:11:35.876Z,65.63
2017-09-18T12:14:03.845Z,64.96
2017-09-18T12:16:31.564Z,65.09
2017-09-18T12:18:59.318Z,64.53
2017-09-18T12:21:26.938Z,65.41
2017-09-18T12:23:54.628Z,64.60
2017-09-18T12:26:22.329Z,64.07
2017-09-18T12:28:50.083Z,64.35
2017-09-18T12:31:17.812Z,63.10
2017-09-18T12:33:45.583Z,62.49
2017-09-18T12:36:13.219Z,60.33
2017-09-18T12:38:41.008Z,61.46
2017-09-18T12:41:08.715Z,62.05
2017-09-18T12:43:36.360Z,63.32
2017-09-18T12:46:04.078Z,63.50
2017-09-18T12:48:31.834Z,64.11
2017-09-18T12:50:59.525Z,63.83
2017-09-18T12:53:27.273Z,63.63
2017-09-18T12:55:54.986Z,61.63
2017-09-18T12:58:22.750Z,62.35
2017-09-18T13:00:50.472Z,60.68
2017-09-18T13:03:18.231Z,61.15
2017-09-18T13:05:45.959Z,60.92
2017-09-18T13:08:13.730Z,61.26
2017-09-18T13:10:41.408Z,64.98
2017-09-18T13:13:09.195Z,65.32
2017-09-18T13:15:36.890Z,65.88
2017-09-18T13:18:04.676Z,64.27
2017-09-18T13:20:32.413Z,64.30
2017-09-18T13:23:00.027Z,61.65
2017-09-18T13:25:27.767Z,61.49
2017-09-18T13:27:55.479Z,59.69
2017-09-18T13:30:23.243Z,59.40
2017-09-18T13:32:50.857Z,57.82
2017-09-18T13:35:18.621Z,59.21
2017-09-18T13:37:46.383Z,58.70
2017-09-18T13:40:14.143Z,57.49
2017-09-18T13:42:41.861Z,56.29
2017-09-18T13:45:09.643Z,58.46
2017-09-18T13:47:37.356Z,56.99
2017-09-18T13:50:05.103Z,55.36
2017-09-18T13:52:32.822Z,55.75
2017-09-18T13:55:00.591Z,57.44
2017-09-18T13:57:28.278Z,58.99
2017-09-18T13:59:56.040Z,59.63
2017-09-18T14:02:23.724Z,61.09
2017-09-18T14:04:51.487Z,64.35
2017-09-18T14:07:19.196Z,66.32
2017-09-18T14:09:46.871Z,68.41
2017-09-18T14:12:14.586Z,69.29
2017-09-18T14:14:42.376Z,69.16
2017-09-18T14:17:10.112Z,68.51
2017-09-18T14:19:37.866Z,69.74
2017-09-18T14:22:05.488Z,68.20
2017-09-18T14:24:33.248Z,67.38
2017-09-18T14:27:00.948Z,66.32
2017-09-18T14:29:28.600Z,67.30
2017-09-18T14:31:56.302Z,65.02
2017-09-18T14:34:24.051Z,66.38
2017-09-18T14:36:51.858Z,66.62
2017-09-18T14:39:19.666Z,64.34
2017-09-18T14:41:47.399Z,62.85
2017-09-18T14:44:15.148Z,61.07
2017-09-18T14:46:42.876Z,59.09
2017-09-18T14:49:10.641Z,59.60
2017-09-18T14:51:38.380Z,58.15
2017-09-18T14:54:06.133Z,58.20
2017-09-18T14:56:33.848Z,58.47
2017-09-18T14:59:01.606Z,55.58
2017-09-18T15:01:29.361Z,59.50
2017-09-18T15:03:57.107Z,62.52
2017-09-18T15:06:24.874Z,62.80
2017-09-18T15:08:52.476Z,63.09
2017-09-18T15:11:20.245Z,63.98
2017-09-18T15:13:47.993Z,64.09
2017-09-18T15:16:15.792Z,62.92
2017-09-18T15:18:43.524Z,63.67
2017-09-18T15:21:11.279Z,64.08
2017-09-18T15:23:39.001Z,64.90
2017-09-18T15:26:06.785Z,65.89
2017-09-18T15:28:34.532Z,66.95
2017-09-18T15:31:02.304Z,68.76
2017-09-18T15:33:29.993Z,66.97
2017-09-18T15:35:57.745Z,67.50
2017-09-18T15:38:25.506Z,67.43
2017-09-18T15:40:53.276Z,70.62
2017-09-18T15:43:20.999Z,72.14
2017-09-18T15:45:48.747Z,73.23
2017-09-18T15:48:16.468Z,73.53
2017-09-18T15:50:44.229Z,75.17
2017-09-18T15:53:11.940Z,75.91
2017-09-18T15:55:39.687Z,75.56
2017-09-18T15:58:07.384Z,76.53
2017-09-18T16:00:35.163Z,76.33
2017-09-18T16:03:02.889Z,77.28
2017-09-18T16:05:30.635Z,77.31
2017-09-18T16:07:58.384Z,77.67
2017-09-18T16:10:26.191Z,77.15
2017-09-18T16:12:53.876Z,76.56
2017-09-18T16:15:21.617Z,77.17
2017-09-18T16:17:49.313Z,76.98
2017-09-18T16:20:17.080Z,77.37
2017-09-18T16:22:44.825Z,77.50
2017-09-18T16:25:12.589Z,77.39
2017-09-18T16:27:40.298Z,77.31
2017-09-18T16:30:08.055Z,78.14
2017-09-18T16:32:35.791Z,78.09
2017-09-18T16:35:03.529Z,77.54
2017-09-18T16:37:31.276Z,78.26
2017-09-18T16:39:59.008Z,79.05
2017-09-18T16:42:26.772Z,79.79
2017-09-18T16:44:54.491Z,80.00
2017-09-18T16:47:22.273Z,80.42
2017-09-18T16:49:49.968Z,81.05
2017-09-18T16:52:17.707Z,81.68
2017-09-18T16:54:45.408Z,82.36
2017-09-18T16:57:13.170Z,82.64
2017-09-18T16:59:40.900Z,83.07
2017-09-18T17:02:08.678Z,83.19
2017-09-18T17:04:36.381Z,83.67
2017-09-18T17:07:04.132Z,83.91
2017-09-18T17:09:31.896Z,84.35
2017-09-18T17:12:00.597Z,84.63
2017-09-18T17:14:28.317Z,84.74
2017-09-18T17:16:56.101Z,84.60
2017-09-18T17:19:23.823Z,84.72
2017-09-18T17:21:51.603Z,85.37
2017-09-18T17:24:19.333Z,85.53
2017-09-18T17:26:47.140Z,86.08
2017-09-18T17:29:14.837Z,86.36
2017-09-18T17:31:42.602Z,86.44
2017-09-18T17:34:10.334Z,86.71
2017-09-18T17:36:38.121Z,86.96
2017-09-18T17:39:05.859Z,87.07
2017-09-18T17:41:33.621Z,87.37
2017-09-18T17:44:01.338Z,87.48
2017-09-18T17:46:29.218Z,87.69
2017-09-18T17:48:56.986Z,87.82
2017-09-18T17:51:24.750Z,87.78
2017-09-18T17:53:52.416Z,87.97
2017-09-18T17:56:20.171Z,88.20
2017-09-18T17:58:47.898Z,88.41
2017-09-18T18:01:15.662Z,88.80
2017-09-18T18:03:43.363Z,89.09
2017-09-18T18:06:15.791Z,89.15
2017-09-18T18:08:43.524Z,89.44
2017-09-18T18:11:17.857Z,89.76
2017-09-18T18:13:48.772Z,90.09
2017-09-18T18:16:19.480Z,90.18
2017-09-18T18:18:50.240Z,90.14
2017-09-18T18:21:20.662Z,90.15
2017-09-18T18:23:51.787Z,90.48
2017-09-18T18:26:22.776Z,90.88
2017-09-18T18:28:53.494Z,91.12
2017-09-18T18:31:24.433Z,91.26
2017-09-18T18:33:55.280Z,91.34
2017-09-18T18:36:26.028Z,91.06
2017-09-18T18:38:56.787Z,90.66
2017-09-18T18:41:27.598Z,90.65
2017-09-18T18:43:58.379Z,91.00
2017-09-18T18:46:29.903Z,91.51
2017-09-18T18:49:00.357Z,91.62
2017-09-18T18:51:31.147Z,91.54
2017-09-18T18:54:02.120Z,91.61
2017-09-18T18:56:33.276Z,91.79
2017-09-18T18:59:04.260Z,91.90
2017-09-18T19:01:35.258Z,92.13
2017-09-18T19:04:06.582Z,92.09
2017-09-18T19:06:37.550Z,92.26
2017-09-18T19:09:08.489Z,92.18
2017-09-18T19:11:39.287Z,91.83
2017-09-18T19:14:10.129Z,91.47
2017-09-18T19:16:40.709Z,91.31
2017-09-18T19:19:11.949Z,91.46
2017-09-18T19:21:46.096Z,91.46
2017-09-18T19:24:16.821Z,91.54
2017-09-18T19:26:47.954Z,91.86
2017-09-18T19:29:18.607Z,91.91
2017-09-18T19:31:49.722Z,92.04
2017-09-18T19:34:20.824Z,92.22
2017-09-18T19:36:51.397Z,92.31
2017-09-18T19:39:21.870Z,92.42
2017-09-18T19:41:52.809Z,92.74
2017-09-18T19:44:24.121Z,92.79
2017-09-18T19:46:59.457Z,93.01
2017-09-18T19:49:30.612Z,93.35
2017-09-18T19:52:01.765Z,93.37
2017-09-18T19:54:32.910Z,93.59
2017-09-18T19:57:04.027Z,93.42
2017-09-18T19:59:34.790Z,93.28
2017-09-18T20:02:06.005Z,93.32
2017-09-18T20:04:37.243Z,93.32
2017-09-18T20:07:08.740Z,93.37
2017-09-18T20:09:39.667Z,93.46
2017-09-18T20:12:11.134Z,93.55
2017-09-18T20:14:41.997Z,93.55
2017-09-18T20:17:12.472Z,93.51
2017-09-18T20:19:43.495Z,93.40
2017-09-18T20:39:32.882Z,93.90
2017-09-18T20:42:02.854Z,94.03
2017-09-18T20:47:24.059Z,94.18
2017-09-18T20:49:51.708Z,94.13
2017-09-18T20:52:19.326Z,94.22
2017-09-18T20:54:47.078Z,94.33
2017-09-18T20:57:14.781Z,94.44
2017-09-18T20:59:42.533Z,94.59
2017-09-18T21:02:10.222Z,94.65
2017-09-18T21:04:37.968Z,94.54
2017-09-18T21:07:05.687Z,94.55
2017-09-18T21:09:33.436Z,94.62
2017-09-18T21:12:01.138Z,94.68
2017-09-18T21:14:28.787Z,94.70
2017-09-18T21:16:56.492Z,94.65
2017-09-18T21:19:24.222Z,94.56
2017-09-18T21:21:51.904Z,94.50
2017-09-18T21:24:19.556Z,94.57
2017-09-18T21:26:47.196Z,94.46
2017-09-18T21:29:14.932Z,94.35
2017-09-18T21:31:42.649Z,94.16
2017-09-18T21:34:10.432Z,93.88
2017-09-18T21:36:38.730Z,93.81
2017-09-18T21:39:06.533Z,93.71
2017-09-18T21:41:34.162Z,93.57
2017-09-18T21:44:01.905Z,93.43
2017-09-18T21:46:29.616Z,93.13
2017-09-18T21:48:57.347Z,93.08
2017-09-18T21:51:24.967Z,93.15
2017-09-18T21:53:52.733Z,93.16
2017-09-18T21:56:20.422Z,93.11
2017-09-18T21:58:48.161Z,93.13
2017-09-18T22:01:15.856Z,93.30
2017-09-18T22:03:43.580Z,93.45
2017-09-18T22:06:11.198Z,93.30
2017-09-18T22:08:38.849Z,93.23
2017-09-18T22:11:06.550Z,93.07
2017-09-18T22:13:34.282Z,92.99
2017-09-18T22:16:01.947Z,92.89
2017-09-18T22:18:29.687Z,92.87
2017-09-18T22:20:57.376Z,92.86
2017-09-18T22:23:25.089Z,92.90
2017-09-18T22:25:52.765Z,93.31
2017-09-18T22:28:20.561Z,93.63
2017-09-18T22:30:48.287Z,94.00
2017-09-18T22:33:15.968Z,94.30
2017-09-18T22:35:43.689Z,94.34
2017-09-18T22:38:11.452Z,94.14
2017-09-18T22:40:39.197Z,93.81
2017-09-18T22:43:06.891Z,93.69
2017-09-18T22:45:34.672Z,93.56
2017-09-18T22:48:02.270Z,93.34
2017-09-18T22:50:29.910Z,93.32
2017-09-18T22:52:57.496Z,93.48
2017-09-18T22:55:25.224Z,93.38
2017-09-18T22:57:52.955Z,93.34
2017-09-18T23:00:20.669Z,93.34
2017-09-18T23:02:48.345Z,93.54
2017-09-18T23:05:16.100Z,93.94
2017-09-18T23:07:43.805Z,94.13
2017-09-18T23:10:11.544Z,94.18
2017-09-18T23:12:39.236Z,94.08
2017-09-18T23:15:06.993Z,94.07
2017-09-18T23:17:34.692Z,93.92
2017-09-18T23:20:02.426Z,93.86
2017-09-18T23:22:30.102Z,94.18
2017-09-18T23:24:57.750Z,94.44
2017-09-18T23:27:25.359Z,94.64
2017-09-18T23:29:53.081Z,94.79
2017-09-18T23:32:20.761Z,94.83
2017-09-18T23:34:48.508Z,95.00
2017-09-18T23:37:16.224Z,95.21
2017-09-18T23:39:43.968Z,95.27
2017-09-18T23:42:11.661Z,95.32
2017-09-18T23:44:39.411Z,95.37
2017-09-18T23:47:07.084Z,95.39
2017-09-18T23:49:34.850Z,95.39
2017-09-18T23:52:02.534Z,95.39
2017-09-18T23:54:30.260Z,95.37
2017-09-18T23:56:57.958Z,95.40
2017-09-18T23:59:25.679Z,95.29
